Terminal Aerodrome Forecast
Issued by NWS Grand Forks, ND

Home | Current Version | Previous Version | Text Only | Print | Product List | Glossary Off
Versions: 1 2 3 4 5 6 7 8 9 10 11 12 13 14 15

012
FTUS43 KFGF 241622 AAB
TAFFAR
TAF AMD
KFAR 241622Z 2416/2512 15015G25KT P6SM OVC016
     FM241800 14018G28KT P6SM OVC025
     FM250100 15016KT P6SM VCTS OVC025CB
     FM250400 17009KT P6SM BKN110=

USA.gov is the U.S. government's official web portal to all federal, state and local government web resources and services.